createdAt,value
2019-04-07T00:01:57.324Z,66.57
2019-04-07T00:04:27.226Z,66.78
2019-04-07T00:06:56.774Z,67.05
2019-04-07T00:09:26.267Z,67.82
2019-04-07T00:11:56.224Z,67.99
2019-04-07T00:14:26.127Z,67.83
2019-04-07T00:16:55.881Z,67.58
2019-04-07T00:19:25.485Z,67.47
2019-04-07T00:21:55.684Z,67.29
2019-04-07T00:24:25.219Z,66.93
2019-04-07T00:27:14.432Z,66.81
2019-04-07T00:29:44.168Z,66.21
2019-04-07T00:32:14.138Z,66.22
2019-04-07T00:34:43.783Z,66.07
2019-04-07T00:37:14.070Z,65.75
2019-04-07T00:39:43.967Z,65.35
2019-04-07T00:42:13.602Z,64.94
2019-04-07T00:44:43.283Z,64.92
2019-04-07T00:47:13.048Z,64.50
2019-04-07T00:49:44.383Z,64.42
2019-04-07T00:52:15.446Z,64.47
2019-04-07T00:54:44.949Z,64.37
2019-04-07T00:57:16.376Z,64.00
2019-04-07T00:59:46.132Z,64.14
2019-04-07T01:02:16.875Z,64.10
2019-04-07T01:04:47.203Z,64.05
2019-04-07T01:07:16.812Z,64.21
2019-04-07T01:09:46.439Z,63.84
2019-04-07T01:12:15.909Z,63.26
2019-04-07T01:14:45.373Z,63.23
2019-04-07T01:17:14.988Z,63.26
2019-04-07T01:19:44.474Z,63.00
2019-04-07T01:22:14.435Z,63.08
2019-04-07T01:24:44.073Z,63.04
2019-04-07T01:27:13.801Z,62.70
2019-04-07T01:29:43.283Z,62.60
2019-04-07T01:32:12.760Z,62.27
2019-04-07T01:34:42.698Z,61.89
2019-04-07T01:37:12.235Z,61.46
2019-04-07T01:39:41.644Z,61.50
2019-04-07T01:42:12.785Z,61.12
2019-04-07T01:44:59.998Z,61.18
2019-04-07T01:47:31.107Z,60.83
2019-04-07T01:50:17.391Z,60.89
2019-04-07T01:52:55.616Z,61.39
2019-04-07T01:55:29.169Z,61.09
2019-04-07T01:58:16.397Z,61.16
2019-04-07T02:01:00.410Z,61.05
2019-04-07T02:03:34.171Z,61.03
2019-04-07T02:06:10.795Z,61.20
2019-04-07T02:08:50.877Z,61.16
2019-04-07T02:11:31.059Z,61.11
2019-04-07T02:14:02.193Z,61.12
2019-04-07T02:16:49.983Z,61.42
2019-04-07T02:19:37.083Z,61.42
2019-04-07T02:22:25.539Z,61.38
2019-04-07T02:25:11.951Z,61.35
2019-04-07T02:27:49.539Z,61.57
2019-04-07T02:30:21.717Z,61.84
2019-04-07T02:32:52.985Z,61.85
2019-04-07T02:35:28.226Z,62.15
2019-04-07T02:38:02.339Z,62.35
2019-04-07T02:40:34.758Z,62.39
2019-04-07T02:43:14.675Z,62.43
2019-04-07T02:45:49.086Z,62.30
2019-04-07T02:48:32.092Z,62.41
2019-04-07T02:51:20.110Z,62.62
2019-04-07T02:54:03.512Z,62.76
2019-04-07T02:56:33.679Z,62.75
2019-04-07T02:59:07.910Z,62.81
2019-04-07T03:01:55.375Z,62.85
2019-04-07T03:04:37.174Z,63.11
2019-04-07T03:07:06.838Z,63.07
2019-04-07T03:09:50.743Z,63.17
2019-04-07T03:12:21.249Z,63.15
2019-04-07T03:15:02.803Z,63.32
2019-04-07T03:17:34.971Z,63.16
2019-04-07T03:20:09.989Z,63.24
2019-04-07T03:22:57.132Z,63.49
2019-04-07T03:25:29.426Z,63.53
2019-04-07T03:28:03.468Z,63.52
2019-04-07T03:30:33.780Z,63.78
2019-04-07T03:33:07.948Z,63.54
2019-04-07T03:35:38.435Z,63.45
2019-04-07T03:38:09.730Z,63.30
2019-04-07T03:40:44.226Z,63.55
2019-04-07T03:43:21.729Z,63.63
2019-04-07T03:45:53.761Z,63.81
2019-04-07T03:48:39.995Z,64.06
2019-04-07T03:51:11.127Z,64.01
2019-04-07T03:53:42.554Z,64.09
2019-04-07T03:56:23.177Z,63.89
2019-04-07T03:58:52.560Z,64.08
2019-04-07T04:01:28.351Z,64.36
2019-04-07T04:04:05.657Z,64.36
2019-04-07T04:06:53.460Z,64.40
2019-04-07T04:09:42.825Z,64.56
2019-04-07T04:12:27.633Z,64.73
2019-04-07T04:15:00.207Z,64.84
2019-04-07T04:17:30.730Z,64.66
2019-04-07T04:20:00.309Z,64.88
2019-04-07T04:22:30.802Z,65.09
2019-04-07T04:25:00.924Z,65.04
2019-04-07T04:27:31.306Z,64.95
2019-04-07T04:30:01.067Z,64.87
2019-04-07T04:32:30.985Z,64.75
2019-04-07T04:35:00.978Z,64.88
2019-04-07T04:37:40.371Z,65.15
2019-04-07T04:40:03.437Z,65.19
2019-04-07T04:42:33.861Z,65.08
2019-04-07T04:45:04.260Z,64.91
2019-04-07T04:47:34.150Z,64.86
2019-04-07T04:50:06.274Z,65.22
2019-04-07T04:52:37.005Z,65.21
2019-04-07T04:55:07.586Z,65.47
2019-04-07T04:57:37.092Z,65.24
2019-04-07T05:00:08.564Z,65.59
2019-04-07T05:02:38.299Z,65.51
2019-04-07T05:05:09.586Z,65.57
2019-04-07T05:07:51.047Z,65.55
2019-04-07T05:10:11.106Z,65.55
2019-04-07T05:12:41.211Z,65.73
2019-04-07T05:15:12.008Z,65.80
2019-04-07T05:17:42.083Z,65.85
2019-04-07T05:20:12.399Z,65.98
2019-04-07T05:22:42.192Z,66.14
2019-04-07T05:25:12.087Z,66.42
2019-04-07T05:27:41.669Z,66.41
2019-04-07T05:30:12.315Z,66.34
2019-04-07T05:32:41.849Z,66.39
2019-04-07T05:35:12.027Z,66.40
2019-04-07T05:37:41.775Z,66.88
2019-04-07T05:40:11.388Z,66.72
2019-04-07T05:42:40.856Z,66.40
2019-04-07T05:45:10.559Z,66.29
2019-04-07T05:47:43.209Z,66.44
2019-04-07T05:50:13.309Z,66.77
2019-04-07T05:52:43.312Z,66.92
2019-04-07T05:55:13.009Z,66.96
2019-04-07T05:57:43.108Z,67.05
2019-04-07T06:00:16.275Z,67.43
2019-04-07T06:02:45.777Z,67.91
2019-04-07T06:05:17.286Z,68.09
2019-04-07T06:07:47.036Z,67.84
2019-04-07T06:10:16.812Z,68.04
2019-04-07T06:12:48.189Z,68.17
2019-04-07T06:15:21.982Z,68.52
2019-04-07T06:17:50.041Z,68.66
2019-04-07T06:20:19.688Z,69.10
2019-04-07T06:22:52.695Z,69.30
2019-04-07T06:25:20.948Z,69.35
2019-04-07T06:27:51.896Z,69.36
2019-04-07T06:30:23.221Z,68.86
2019-04-07T06:32:52.887Z,68.83
2019-04-07T06:35:22.548Z,68.82
2019-04-07T06:37:52.162Z,68.88
2019-04-07T06:40:22.243Z,68.93
2019-04-07T06:42:52.483Z,69.11
2019-04-07T06:45:26.679Z,69.44
2019-04-07T06:48:07.409Z,69.90
2019-04-07T06:50:57.933Z,70.91
2019-04-07T06:53:23.520Z,70.44
2019-04-07T06:56:12.854Z,70.11
2019-04-07T06:58:50.392Z,69.95
2019-04-07T07:01:34.882Z,69.50
2019-04-07T07:04:08.642Z,69.49
2019-04-07T07:06:55.716Z,68.62
2019-04-07T07:09:33.283Z,67.96
2019-04-07T07:12:27.641Z,67.35
2019-04-07T07:14:53.856Z,66.37
2019-04-07T07:17:25.667Z,66.32
2019-04-07T07:20:02.350Z,65.67
2019-04-07T07:22:42.401Z,64.88
2019-04-07T07:25:13.257Z,67.49
2019-04-07T07:27:43.077Z,65.26
2019-04-07T07:30:15.162Z,64.26
2019-04-07T07:32:44.297Z,65.68
2019-04-07T07:35:15.296Z,63.89
2019-04-07T07:37:45.519Z,64.17
2019-04-07T07:40:18.070Z,62.80
2019-04-07T07:42:49.033Z,62.47
2019-04-07T07:45:18.631Z,61.87
2019-04-07T07:47:51.219Z,61.29
2019-04-07T07:50:20.126Z,60.50
2019-04-07T07:52:53.137Z,61.04
2019-04-07T07:55:21.958Z,60.27
2019-04-07T07:57:56.774Z,58.28
2019-04-07T08:00:22.805Z,56.29
2019-04-07T08:02:53.417Z,58.41
2019-04-07T08:05:23.795Z,56.93
2019-04-07T08:07:54.051Z,57.33
2019-04-07T08:10:25.343Z,55.71
2019-04-07T08:12:54.845Z,55.77
2019-04-07T08:15:29.664Z,54.30
2019-04-07T08:17:56.301Z,53.38
2019-04-07T08:20:25.858Z,52.87
2019-04-07T08:22:56.158Z,52.88
2019-04-07T08:25:25.835Z,51.81
2019-04-07T08:27:55.432Z,52.44
2019-04-07T08:30:25.114Z,51.24
2019-04-07T08:32:57.646Z,51.05
2019-04-07T08:35:25.896Z,50.04
2019-04-07T08:37:55.608Z,49.63
2019-04-07T08:40:25.311Z,49.08
2019-04-07T08:42:54.778Z,49.60
2019-04-07T08:45:24.379Z,48.74
2019-04-07T08:47:53.866Z,48.38
2019-04-07T08:50:27.232Z,47.96
2019-04-07T08:52:55.364Z,47.66
2019-04-07T08:55:25.667Z,47.47
2019-04-07T08:57:55.290Z,46.89
2019-04-07T09:00:27.111Z,47.59
2019-04-07T09:03:04.018Z,47.14
2019-04-07T09:05:30.850Z,45.43
2019-04-07T09:07:59.451Z,46.99
2019-04-07T09:10:37.175Z,46.30
2019-04-07T09:13:09.254Z,45.54
2019-04-07T09:15:43.575Z,44.73
2019-04-07T09:18:22.310Z,45.54
2019-04-07T09:20:53.433Z,44.98
2019-04-07T09:23:28.275Z,45.61
2019-04-07T09:26:05.560Z,42.67
2019-04-07T09:28:36.787Z,43.98
2019-04-07T09:31:10.387Z,44.35
2019-04-07T09:33:43.181Z,45.81
2019-04-07T09:36:24.583Z,43.38
2019-04-07T09:38:59.954Z,44.01
2019-04-07T09:41:29.741Z,42.49
2019-04-07T09:44:19.809Z,42.43
2019-04-07T09:46:51.464Z,41.21
2019-04-07T09:49:28.536Z,39.85
2019-04-07T09:52:05.697Z,41.50
2019-04-07T09:57:22.559Z,40.07
2019-04-07T09:59:56.512Z,40.65
2019-04-07T10:02:34.142Z,40.44
2019-04-07T10:05:05.975Z,40.28
2019-04-07T10:07:42.342Z,40.04
2019-04-07T10:10:28.232Z,39.20
2019-04-07T10:12:59.871Z,38.33
2019-04-07T10:15:37.701Z,38.67
2019-04-07T10:18:20.981Z,37.58
2019-04-07T10:20:52.880Z,38.25
2019-04-07T10:23:24.201Z,37.33
2019-04-07T10:25:56.220Z,35.00
2019-04-07T10:28:33.453Z,35.87
2019-04-07T10:31:10.237Z,35.27
2019-04-07T10:33:43.831Z,35.08
2019-04-07T10:36:30.888Z,34.82
2019-04-07T10:39:18.667Z,35.25
2019-04-07T10:41:50.697Z,34.15
2019-04-07T10:44:29.377Z,34.53
2019-04-07T10:47:03.739Z,34.85
2019-04-07T10:49:58.560Z,34.69
2019-04-07T10:52:40.128Z,34.77
2019-04-07T10:55:20.746Z,36.87
2019-04-07T10:57:58.420Z,35.71
2019-04-07T11:00:46.354Z,34.15
2019-04-07T11:05:54.924Z,34.83
2019-04-07T11:08:26.185Z,35.06
2019-04-07T11:10:57.306Z,32.99
2019-04-07T11:13:26.578Z,33.95
2019-04-07T11:16:03.415Z,33.71
2019-04-07T11:18:51.768Z,34.28
2019-04-07T11:21:26.491Z,32.65
2019-04-07T11:23:57.825Z,32.89
2019-04-07T11:26:44.092Z,33.11
2019-04-07T11:29:16.594Z,32.36
2019-04-07T11:31:48.472Z,33.34
2019-04-07T11:34:25.523Z,33.47
2019-04-07T11:37:03.752Z,32.73
2019-04-07T11:39:41.332Z,31.50
2019-04-07T11:42:13.072Z,32.21
2019-04-07T11:44:48.771Z,33.40
2019-04-07T11:47:18.580Z,32.67
2019-04-07T11:49:52.594Z,32.92
2019-04-07T11:52:40.835Z,31.78
2019-04-07T11:55:30.068Z,32.16
2019-04-07T11:58:26.068Z,32.02
2019-04-07T12:00:53.814Z,32.10
2019-04-07T12:03:28.874Z,31.54
2019-04-07T12:06:17.272Z,31.16
2019-04-07T12:08:47.790Z,32.22
2019-04-07T12:11:34.380Z,30.94
2019-04-07T12:14:24.463Z,31.39
2019-04-07T12:17:13.895Z,32.21
2019-04-07T12:19:44.373Z,29.58
2019-04-07T12:25:24.442Z,30.10
2019-04-07T12:28:00.097Z,30.87
2019-04-07T12:30:31.606Z,31.02
2019-04-07T12:33:20.388Z,29.56
2019-04-07T12:35:55.190Z,29.84
2019-04-07T12:38:36.031Z,29.74
2019-04-07T12:41:22.258Z,29.49
2019-04-07T12:43:52.972Z,30.18
2019-04-07T12:46:27.904Z,30.92
2019-04-07T12:49:14.433Z,30.03
2019-04-07T12:51:56.079Z,31.06
2019-04-07T12:54:30.206Z,31.56
2019-04-07T12:57:03.717Z,31.25
2019-04-07T12:59:41.338Z,32.80
2019-04-07T13:05:03.881Z,31.60
2019-04-07T13:07:43.256Z,32.42
2019-04-07T13:10:17.526Z,32.05
2019-04-07T13:12:57.175Z,32.36
2019-04-07T13:15:33.575Z,32.03
2019-04-07T13:18:05.577Z,32.58
2019-04-07T13:20:49.094Z,31.06
2019-04-07T13:23:23.642Z,31.89
2019-04-07T13:26:00.991Z,30.94
2019-04-07T13:28:37.810Z,31.29
2019-04-07T13:31:18.095Z,30.61
2019-04-07T13:34:04.373Z,30.32
2019-04-07T13:36:34.407Z,29.62
2019-04-07T13:39:12.031Z,30.68
2019-04-07T13:42:00.137Z,31.01
2019-04-07T13:44:49.819Z,29.73
2019-04-07T13:47:29.677Z,30.15
2019-04-07T13:50:04.132Z,29.71
2019-04-07T13:52:54.996Z,28.94
2019-04-07T13:55:42.049Z,28.70
2019-04-07T13:58:19.613Z,30.72
2019-04-07T14:01:09.586Z,30.63
2019-04-07T14:03:48.199Z,29.27
2019-04-07T14:06:19.475Z,30.63
2019-04-07T14:08:57.229Z,29.07
2019-04-07T14:11:27.416Z,29.05
2019-04-07T14:14:07.991Z,29.08
2019-04-07T14:16:54.995Z,30.80
2019-04-07T14:19:57.718Z,28.81
2019-04-07T14:22:32.134Z,28.60
2019-04-07T14:25:05.794Z,28.65
2019-04-07T14:27:46.223Z,28.39
2019-04-07T14:30:34.116Z,29.20
2019-04-07T14:33:12.569Z,30.03
2019-04-07T14:35:58.147Z,30.11
2019-04-07T14:38:35.673Z,28.18
2019-04-07T14:41:16.007Z,29.13
2019-04-07T14:43:51.964Z,29.67
2019-04-07T14:46:37.767Z,28.98
2019-04-07T14:49:13.139Z,30.04
2019-04-07T14:51:58.169Z,28.10
2019-04-07T14:54:28.171Z,28.70
2019-04-07T14:56:59.389Z,31.01
2019-04-07T14:59:30.615Z,28.97
2019-04-07T15:02:01.962Z,29.69
2019-04-07T15:04:33.036Z,28.70
2019-04-07T15:07:14.142Z,27.36
2019-04-07T15:09:48.069Z,28.95
2019-04-07T15:12:28.507Z,28.02
2019-04-07T15:14:58.948Z,28.19
2019-04-07T15:17:29.265Z,27.74
2019-04-07T15:20:18.307Z,28.49
2019-04-07T15:22:48.514Z,27.68
2019-04-07T15:25:19.509Z,29.66
2019-04-07T15:27:49.057Z,29.80
2019-04-07T15:30:18.648Z,29.66
2019-04-07T15:32:48.445Z,29.16
2019-04-07T15:35:17.889Z,30.62
2019-04-07T15:37:47.669Z,28.95
2019-04-07T15:40:18.134Z,29.21
2019-04-07T15:42:50.401Z,29.74
2019-04-07T15:45:20.482Z,28.75
2019-04-07T15:47:52.933Z,30.01
2019-04-07T15:50:22.397Z,29.66
2019-04-07T15:52:52.236Z,30.43
2019-04-07T15:55:21.868Z,31.10
2019-04-07T15:57:55.564Z,31.64
2019-04-07T16:00:23.750Z,31.22
2019-04-07T16:02:54.621Z,31.78
2019-04-07T16:05:24.469Z,31.93
2019-04-07T16:07:55.399Z,32.37
2019-04-07T16:10:26.148Z,32.46
2019-04-07T16:12:58.726Z,31.52
2019-04-07T16:15:27.248Z,31.28
2019-04-07T16:17:56.883Z,32.88
2019-04-07T16:20:32.313Z,31.63
2019-04-07T16:22:57.781Z,31.66
2019-04-07T16:25:28.167Z,31.49
2019-04-07T16:27:59.049Z,32.21
2019-04-07T16:30:28.768Z,31.29
2019-04-07T16:33:01.925Z,31.77
2019-04-07T16:35:29.894Z,31.70
2019-04-07T16:38:00.424Z,31.60
2019-04-07T16:40:31.573Z,32.87
2019-04-07T16:43:11.613Z,32.48
2019-04-07T16:45:32.765Z,32.25
2019-04-07T16:48:04.511Z,32.29
2019-04-07T16:50:33.638Z,33.25
2019-04-07T16:53:04.762Z,33.40
2019-04-07T16:55:38.055Z,33.37
2019-04-07T16:58:09.529Z,32.90
2019-04-07T17:00:39.831Z,33.54
2019-04-07T17:03:10.115Z,32.53
2019-04-07T17:05:39.850Z,33.37
2019-04-07T17:08:09.498Z,33.40
2019-04-07T17:10:39.249Z,32.38
2019-04-07T17:13:17.758Z,32.92
2019-04-07T17:15:41.617Z,32.45
2019-04-07T17:18:36.766Z,32.39
2019-04-07T17:21:14.413Z,31.88
2019-04-07T17:23:45.492Z,32.33
2019-04-07T17:26:15.508Z,32.63
2019-04-07T17:28:48.098Z,32.69
2019-04-07T17:31:16.481Z,32.50
2019-04-07T17:33:47.015Z,33.97
2019-04-07T17:36:20.185Z,33.03
2019-04-07T17:38:49.913Z,32.97
2019-04-07T17:41:20.177Z,32.87
2019-04-07T17:44:03.423Z,33.01
2019-04-07T17:46:36.127Z,33.78
2019-04-07T17:49:26.021Z,33.34
2019-04-07T17:51:57.529Z,34.86
2019-04-07T17:54:44.971Z,34.11
2019-04-07T17:57:18.565Z,34.33
2019-04-07T18:00:00.305Z,35.80
2019-04-07T18:02:37.588Z,36.17
2019-04-07T18:05:13.305Z,36.76
2019-04-07T18:07:45.277Z,37.54
2019-04-07T18:10:33.377Z,38.07
2019-04-07T18:13:21.809Z,38.65
2019-04-07T18:16:06.783Z,39.13
2019-04-07T18:18:56.237Z,39.53
2019-04-07T18:21:31.594Z,39.94
2019-04-07T18:24:12.575Z,40.28
2019-04-07T18:26:45.152Z,40.17
2019-04-07T18:29:17.442Z,40.73
2019-04-07T18:32:01.973Z,41.53
2019-04-07T18:34:49.622Z,41.81
2019-04-07T18:37:40.051Z,42.04
2019-04-07T18:40:14.407Z,42.59
2019-04-07T18:42:49.001Z,42.99
2019-04-07T18:45:21.593Z,43.26
2019-04-07T18:48:09.266Z,43.61
2019-04-07T18:50:43.318Z,43.57
2019-04-07T18:53:22.105Z,44.04
2019-04-07T18:56:02.240Z,44.52
2019-04-07T18:58:52.627Z,44.81
2019-04-07T19:01:29.756Z,44.98
2019-04-07T19:04:07.830Z,45.61
2019-04-07T19:06:53.785Z,45.85
2019-04-07T19:09:25.914Z,46.29
2019-04-07T19:12:05.170Z,46.64
2019-04-07T19:14:50.233Z,46.89
2019-04-07T19:17:34.974Z,47.17
2019-04-07T19:20:06.652Z,47.35
2019-04-07T19:22:54.065Z,47.73
2019-04-07T19:25:25.860Z,48.14
2019-04-07T19:28:07.793Z,48.49
2019-04-07T19:30:46.162Z,48.69
2019-04-07T19:33:24.495Z,48.82
2019-04-07T19:35:59.414Z,48.95
2019-04-07T19:38:29.401Z,49.41
2019-04-07T19:41:06.856Z,49.48
2019-04-07T19:43:37.133Z,49.67
2019-04-07T19:46:28.194Z,49.85
2019-04-07T19:48:59.012Z,50.24
2019-04-07T19:51:42.261Z,50.23
2019-04-07T19:54:20.386Z,50.53
2019-04-07T19:56:50.189Z,50.87
2019-04-07T19:59:30.807Z,50.72
2019-04-07T20:02:13.872Z,51.21
2019-04-07T20:04:47.770Z,51.47
2019-04-07T20:07:20.119Z,51.74
2019-04-07T20:09:50.412Z,51.79
2019-04-07T20:12:29.960Z,51.99
2019-04-07T20:15:16.351Z,52.25
2019-04-07T20:17:56.526Z,52.40
2019-04-07T20:20:35.820Z,52.55
2019-04-07T20:23:08.476Z,52.83
2019-04-07T20:25:56.015Z,52.93
2019-04-07T20:28:36.363Z,52.97
2019-04-07T20:31:21.803Z,53.16
2019-04-07T20:33:54.678Z,53.23
2019-04-07T20:36:26.875Z,53.56
2019-04-07T20:39:15.295Z,53.68
2019-04-07T20:41:48.040Z,53.94
2019-04-07T20:44:19.300Z,54.12
2019-04-07T20:46:49.152Z,54.11
2019-04-07T20:49:40.239Z,53.95
2019-04-07T20:52:22.275Z,54.22
2019-04-07T20:55:09.730Z,54.25
2019-04-07T20:57:42.679Z,54.16
2019-04-07T21:00:29.404Z,54.58
2019-04-07T21:03:15.270Z,54.42
2019-04-07T21:05:42.759Z,54.82
2019-04-07T21:08:14.498Z,54.60
2019-04-07T21:10:44.267Z,54.82
2019-04-07T21:13:16.785Z,55.01
2019-04-07T21:15:51.961Z,55.20
2019-04-07T21:18:23.524Z,55.20
2019-04-07T21:20:58.890Z,55.50
2019-04-07T21:23:33.168Z,55.26
2019-04-07T21:26:17.606Z,55.00
2019-04-07T21:28:48.682Z,55.38
2019-04-07T21:31:29.041Z,55.57
2019-04-07T21:34:02.847Z,55.67
2019-04-07T21:36:41.419Z,55.67
2019-04-07T21:39:15.056Z,55.84
2019-04-07T21:41:47.705Z,55.95
2019-04-07T21:44:22.139Z,56.01
2019-04-07T21:46:56.580Z,55.78
2019-04-07T21:49:25.921Z,56.41
2019-04-07T21:51:57.064Z,56.27
2019-04-07T21:54:35.681Z,56.43
2019-04-07T21:57:08.374Z,56.52
2019-04-07T21:59:45.835Z,56.58
2019-04-07T22:02:17.446Z,56.14
2019-04-07T22:04:55.847Z,56.50
2019-04-07T22:07:33.145Z,56.41
2019-04-07T22:10:05.831Z,56.64
2019-04-07T22:12:35.931Z,56.27
2019-04-07T22:15:11.620Z,56.67
2019-04-07T22:17:39.384Z,56.71
2019-04-07T22:20:10.574Z,56.71
2019-04-07T22:22:40.826Z,57.01
2019-04-07T22:25:11.476Z,57.15
2019-04-07T22:27:41.244Z,57.20
2019-04-07T22:30:13.183Z,57.12
2019-04-07T22:32:42.807Z,57.27
2019-04-07T22:35:12.728Z,57.10
2019-04-07T22:37:42.864Z,57.55
2019-04-07T22:40:21.378Z,57.47
2019-04-07T22:42:51.118Z,57.34
2019-04-07T22:45:24.350Z,57.33
2019-04-07T22:48:12.108Z,57.00
2019-04-07T22:50:41.745Z,57.11
2019-04-07T22:53:11.470Z,57.12
2019-04-07T22:55:42.029Z,57.32
2019-04-07T22:58:24.279Z,57.31
2019-04-07T23:01:13.275Z,57.42
2019-04-07T23:03:42.732Z,57.03
2019-04-07T23:06:12.643Z,57.54
2019-04-07T23:08:43.219Z,57.39
2019-04-07T23:11:12.695Z,57.43
2019-04-07T23:13:42.194Z,57.36
2019-04-07T23:16:14.928Z,57.46
2019-04-07T23:18:42.884Z,57.37
2019-04-07T23:21:12.522Z,57.76
2019-04-07T23:23:42.051Z,57.46
2019-04-07T23:26:11.542Z,57.56
2019-04-07T23:28:41.098Z,57.48
2019-04-07T23:31:11.649Z,57.70
2019-04-07T23:33:41.758Z,57.88
2019-04-07T23:36:11.654Z,57.74
2019-04-07T23:38:41.298Z,57.78
2019-04-07T23:41:11.677Z,57.42
2019-04-07T23:43:41.803Z,57.61
2019-04-07T23:46:20.748Z,57.82
2019-04-07T23:48:42.625Z,57.88
2019-04-07T23:51:12.341Z,57.79
2019-04-07T23:54:31.367Z,57.75
2019-04-07T23:57:01.334Z,58.02
2019-04-07T23:59:30.831Z,58.00
